createdAt,value
2022-12-16T00:02:09.074Z,-6.53
2022-12-16T00:04:26.121Z,-6.47
2022-12-16T00:06:43.054Z,-6.49
2022-12-16T00:08:59.989Z,-6.56
2022-12-16T00:11:17.324Z,-6.55
2022-12-16T00:13:34.905Z,-6.60
2022-12-16T00:15:52.624Z,-6.64
2022-12-16T00:18:10.467Z,-6.63
2022-12-16T00:20:27.858Z,-6.71
2022-12-16T00:22:44.815Z,-6.69
2022-12-16T00:25:02.079Z,-6.65
2022-12-16T00:27:19.094Z,-6.65
2022-12-16T00:29:37.050Z,-6.63
2022-12-16T00:31:54.430Z,-6.64
2022-12-16T00:34:11.346Z,-6.69
2022-12-16T00:36:28.633Z,-6.65
2022-12-16T00:38:45.882Z,-6.65
2022-12-16T00:41:03.189Z,-6.75
2022-12-16T00:43:20.579Z,-6.76
2022-12-16T00:45:37.860Z,-6.74
2022-12-16T00:47:54.837Z,-6.79
2022-12-16T00:50:11.967Z,-6.87
2022-12-16T00:52:28.941Z,-6.85
2022-12-16T00:54:45.942Z,-6.85
2022-12-16T00:57:03.234Z,-6.86
2022-12-16T00:59:20.154Z,-6.86
2022-12-16T01:01:37.228Z,-6.87
2022-12-16T01:03:54.245Z,-6.98
2022-12-16T01:06:12.734Z,-6.98
2022-12-16T01:08:29.659Z,-7.07
2022-12-16T01:10:46.621Z,-7.05
2022-12-16T01:13:03.898Z,-7.10
2022-12-16T01:15:21.211Z,-7.12
2022-12-16T01:17:38.233Z,-7.18
2022-12-16T01:19:55.630Z,-7.18
2022-12-16T01:22:12.751Z,-7.17
2022-12-16T01:24:29.737Z,-7.21
2022-12-16T01:26:46.708Z,-7.27
2022-12-16T01:29:03.724Z,-7.31
2022-12-16T01:31:20.942Z,-7.31
2022-12-16T01:33:38.065Z,-7.36
2022-12-16T01:35:56.239Z,-7.38
2022-12-16T01:38:16.320Z,-7.41
2022-12-16T01:40:33.265Z,-7.48
2022-12-16T01:42:50.228Z,-7.51
2022-12-16T01:45:07.802Z,-7.53
2022-12-16T01:47:24.815Z,-7.46
2022-12-16T01:49:41.756Z,-7.51
2022-12-16T01:51:59.086Z,-7.51
2022-12-16T01:54:16.115Z,-7.56
2022-12-16T01:56:33.105Z,-7.58
2022-12-16T01:58:50.185Z,-7.56
2022-12-16T02:01:08.090Z,-7.48
2022-12-16T02:03:25.212Z,-7.43
2022-12-16T02:05:42.355Z,-7.49
2022-12-16T02:07:59.418Z,-7.45
2022-12-16T02:10:16.498Z,-7.39
2022-12-16T02:12:34.547Z,-7.37
2022-12-16T02:14:51.923Z,-7.37
2022-12-16T02:17:10.468Z,-7.41
2022-12-16T02:19:28.587Z,-7.45
2022-12-16T02:21:45.582Z,-7.43
2022-12-16T02:24:02.968Z,-7.49
2022-12-16T02:26:20.324Z,-7.49
2022-12-16T02:28:37.434Z,-7.42
2022-12-16T02:30:55.183Z,-7.42
2022-12-16T02:33:12.439Z,-7.41
2022-12-16T02:35:29.834Z,-7.43
2022-12-16T02:37:47.781Z,-7.37
2022-12-16T02:40:05.112Z,-7.42
2022-12-16T02:42:22.195Z,-7.42
2022-12-16T02:44:40.099Z,-7.47
2022-12-16T02:46:57.229Z,-7.47
2022-12-16T02:49:14.300Z,-7.53
2022-12-16T02:51:31.581Z,-7.48
2022-12-16T02:53:48.634Z,-7.55
2022-12-16T02:56:05.712Z,-7.62
2022-12-16T02:58:23.071Z,-7.67
2022-12-16T03:00:40.142Z,-7.63
2022-12-16T03:02:57.716Z,-7.63
2022-12-16T03:05:15.015Z,-7.55
2022-12-16T03:07:31.985Z,-7.47
2022-12-16T03:09:49.311Z,-7.39
2022-12-16T03:12:06.393Z,-7.23
2022-12-16T03:14:23.618Z,-7.23
2022-12-16T03:16:41.004Z,-7.22
2022-12-16T03:18:58.365Z,-7.15
2022-12-16T03:21:15.486Z,-7.10
2022-12-16T03:23:33.156Z,-7.02
2022-12-16T03:25:50.847Z,-7.00
2022-12-16T03:28:07.802Z,-6.89
2022-12-16T03:30:25.153Z,-6.85
2022-12-16T03:32:42.195Z,-6.83
2022-12-16T03:34:59.481Z,-6.87
2022-12-16T03:37:16.726Z,-6.92
2022-12-16T03:39:33.776Z,-6.94
2022-12-16T03:41:50.800Z,-6.88
2022-12-16T03:44:08.137Z,-6.86
2022-12-16T03:46:26.172Z,-6.88
2022-12-16T03:48:43.521Z,-6.87
2022-12-16T03:51:00.923Z,-6.86
2022-12-16T03:53:18.046Z,-6.90
2022-12-16T03:55:35.014Z,-6.94
2022-12-16T03:57:52.371Z,-6.93
2022-12-16T04:00:09.707Z,-7.00
2022-12-16T04:02:28.125Z,-7.04
2022-12-16T04:04:45.408Z,-7.09
2022-12-16T04:07:02.476Z,-7.13
2022-12-16T04:09:19.775Z,-7.12
2022-12-16T04:11:36.827Z,-7.19
2022-12-16T04:13:54.133Z,-7.21
2022-12-16T04:16:11.182Z,-7.18
2022-12-16T04:18:28.181Z,-7.17
2022-12-16T04:20:45.111Z,-7.17
2022-12-16T04:23:02.169Z,-7.22
2022-12-16T04:25:19.250Z,-7.20
2022-12-16T04:27:36.577Z,-7.16
2022-12-16T04:29:53.524Z,-7.21
2022-12-16T04:32:10.628Z,-7.22
2022-12-16T04:34:27.646Z,-7.22
2022-12-16T04:36:44.607Z,-7.11
2022-12-16T04:39:01.513Z,-7.11
2022-12-16T04:41:19.746Z,-7.14
2022-12-16T04:43:37.230Z,-7.11
2022-12-16T04:45:56.952Z,-7.06
2022-12-16T04:48:14.223Z,-6.95
2022-12-16T04:50:31.553Z,-6.95
2022-12-16T04:52:48.554Z,-7.01
2022-12-16T04:55:05.534Z,-7.03
2022-12-16T04:57:22.723Z,-6.97
2022-12-16T04:59:39.872Z,-7.07
2022-12-16T05:01:56.854Z,-6.97
2022-12-16T05:04:14.207Z,-7.06
2022-12-16T05:06:32.451Z,-7.03
2022-12-16T05:08:49.676Z,-7.03
2022-12-16T05:11:06.703Z,-7.00
2022-12-16T05:13:23.789Z,-6.91
2022-12-16T05:15:41.081Z,-6.95
2022-12-16T05:17:58.087Z,-7.01
2022-12-16T05:20:15.102Z,-7.13
2022-12-16T05:22:32.180Z,-7.15
2022-12-16T05:24:52.848Z,-7.25
2022-12-16T05:27:10.764Z,-7.32
2022-12-16T05:29:28.105Z,-7.42
2022-12-16T05:31:45.409Z,-7.41
2022-12-16T05:34:02.476Z,-7.47
2022-12-16T05:36:19.750Z,-7.48
2022-12-16T05:38:37.064Z,-7.61
2022-12-16T05:40:54.402Z,-7.57
2022-12-16T05:43:16.720Z,-7.62
2022-12-16T05:45:33.970Z,-7.64
2022-12-16T05:47:52.281Z,-7.71
2022-12-16T05:50:09.209Z,-7.72
2022-12-16T05:52:26.242Z,-7.77
2022-12-16T05:54:43.588Z,-7.79
2022-12-16T05:57:00.550Z,-7.85
2022-12-16T05:59:17.889Z,-7.90
2022-12-16T06:01:35.039Z,-7.95
2022-12-16T06:03:52.518Z,-8.00
2022-12-16T06:06:09.800Z,-8.03
2022-12-16T06:08:26.719Z,-8.05
2022-12-16T06:10:43.773Z,-8.09
2022-12-16T06:13:00.697Z,-8.14
2022-12-16T06:15:17.811Z,-8.16
2022-12-16T06:17:35.075Z,-8.25
2022-12-16T06:19:52.393Z,-8.30
2022-12-16T06:22:09.350Z,-8.36
2022-12-16T06:24:26.332Z,-8.38
2022-12-16T06:26:43.613Z,-8.38
2022-12-16T06:29:00.907Z,-8.50
2022-12-16T06:31:18.205Z,-8.46
2022-12-16T06:33:35.675Z,-8.45
2022-12-16T06:35:52.875Z,-8.25
2022-12-16T06:38:09.852Z,-8.20
2022-12-16T06:40:26.795Z,-8.20
2022-12-16T06:42:44.063Z,-8.22
2022-12-16T06:45:01.407Z,-8.17
2022-12-16T06:47:19.689Z,-8.20
2022-12-16T06:49:36.925Z,-8.20
2022-12-16T06:51:54.176Z,-8.24
2022-12-16T06:54:12.441Z,-8.12
2022-12-16T06:56:29.352Z,-8.03
2022-12-16T06:58:46.270Z,-7.93
2022-12-16T07:01:03.350Z,-7.93
2022-12-16T07:03:20.404Z,-8.00
2022-12-16T07:05:37.311Z,-8.14
2022-12-16T07:07:54.376Z,-8.24
2022-12-16T07:10:11.441Z,-8.22
2022-12-16T07:12:29.289Z,-8.33
2022-12-16T07:14:46.219Z,-8.33
2022-12-16T07:17:03.194Z,-8.36
2022-12-16T07:19:20.513Z,-8.31
2022-12-16T07:21:37.976Z,-8.37
2022-12-16T07:23:54.913Z,-8.41
2022-12-16T07:26:12.932Z,-8.50
2022-12-16T07:28:30.202Z,-8.60
2022-12-16T07:30:47.086Z,-8.61
2022-12-16T07:33:04.115Z,-8.64
2022-12-16T07:35:21.150Z,-8.65
2022-12-16T07:37:39.027Z,-8.66
2022-12-16T07:39:56.349Z,-8.67
2022-12-16T07:42:13.647Z,-8.52
2022-12-16T07:44:30.545Z,-8.55
2022-12-16T07:46:47.531Z,-8.58
2022-12-16T07:49:04.806Z,-8.63
2022-12-16T07:51:21.677Z,-8.66
2022-12-16T07:53:39.208Z,-8.62
2022-12-16T07:55:57.451Z,-8.65
2022-12-16T07:58:14.389Z,-8.67
2022-12-16T08:00:31.602Z,-8.65
2022-12-16T08:02:48.781Z,-8.66
2022-12-16T08:05:06.007Z,-8.64
2022-12-16T08:07:23.358Z,-8.59
2022-12-16T08:09:40.707Z,-8.55
2022-12-16T08:11:57.982Z,-8.54
2022-12-16T08:14:15.202Z,-8.46
2022-12-16T08:16:32.236Z,-8.41
2022-12-16T08:18:49.309Z,-8.36
2022-12-16T08:21:06.254Z,-8.33
2022-12-16T08:23:23.222Z,-8.33
2022-12-16T08:25:40.180Z,-8.35
2022-12-16T08:27:57.498Z,-8.38
2022-12-16T08:30:14.419Z,-8.42
2022-12-16T08:32:31.646Z,-8.25
2022-12-16T08:34:48.606Z,-8.15
2022-12-16T08:37:05.589Z,-8.03
2022-12-16T08:39:22.656Z,-7.97
2022-12-16T08:41:40.964Z,-7.88
2022-12-16T08:43:58.028Z,-7.83
2022-12-16T08:46:15.124Z,-7.79
2022-12-16T08:48:32.211Z,-7.67
2022-12-16T08:50:49.300Z,-7.64
2022-12-16T08:53:06.257Z,-7.40
2022-12-16T08:55:27.769Z,-7.21
2022-12-16T08:57:46.836Z,-7.22
2022-12-16T09:00:03.893Z,-7.12
2022-12-16T09:02:21.258Z,-7.06
2022-12-16T09:04:38.589Z,-7.01
2022-12-16T09:06:55.851Z,-6.95
2022-12-16T09:09:12.886Z,-6.82
2022-12-16T09:11:29.870Z,-6.70
2022-12-16T09:13:47.121Z,-6.56
2022-12-16T09:16:04.437Z,-6.43
2022-12-16T09:18:21.472Z,-6.24
2022-12-16T09:20:38.403Z,-6.17
2022-12-16T09:22:55.414Z,-6.07
2022-12-16T09:25:12.466Z,-5.88
2022-12-16T09:27:29.669Z,-5.63
2022-12-16T09:29:46.594Z,-5.51
2022-12-16T09:32:03.664Z,-5.48
2022-12-16T09:34:20.739Z,-5.43
2022-12-16T09:36:37.997Z,-5.41
2022-12-16T09:38:55.303Z,-5.18
2022-12-16T09:41:12.560Z,-5.12
2022-12-16T09:43:29.547Z,-4.88
2022-12-16T09:45:46.442Z,-4.35
2022-12-16T09:48:03.381Z,-3.94
2022-12-16T09:50:20.459Z,-3.10
2022-12-16T09:52:37.803Z,-2.70
2022-12-16T09:54:56.046Z,-2.68
2022-12-16T09:57:13.088Z,-2.63
2022-12-16T09:59:30.022Z,-2.74
2022-12-16T10:01:47.160Z,-3.02
2022-12-16T10:04:04.420Z,-3.14
2022-12-16T10:06:21.835Z,-3.19
2022-12-16T10:08:39.746Z,-3.24
2022-12-16T10:10:56.799Z,-3.44
2022-12-16T10:13:13.815Z,-3.48
2022-12-16T10:15:31.076Z,-3.54
2022-12-16T10:17:48.953Z,-3.36
2022-12-16T10:20:09.186Z,-3.42
2022-12-16T10:22:27.015Z,-3.40
2022-12-16T10:24:44.260Z,-3.22
2022-12-16T10:27:01.540Z,-3.18
2022-12-16T10:29:20.998Z,-3.21
2022-12-16T10:31:38.280Z,-3.27
2022-12-16T10:33:55.421Z,-3.31
2022-12-16T10:36:13.461Z,-3.33
2022-12-16T10:38:30.779Z,-3.21
2022-12-16T10:40:47.746Z,-3.10
2022-12-16T10:43:05.050Z,-3.19
2022-12-16T10:45:22.107Z,-3.12
2022-12-16T10:47:39.430Z,-3.00
2022-12-16T10:49:56.434Z,-3.11
2022-12-16T10:52:14.121Z,-3.07
2022-12-16T10:54:31.456Z,-2.98
2022-12-16T10:56:48.305Z,-2.90
2022-12-16T10:59:05.576Z,-2.92
2022-12-16T11:01:22.749Z,-2.89
2022-12-16T11:03:40.483Z,-2.86
2022-12-16T11:05:57.567Z,-2.84
2022-12-16T11:08:14.820Z,-2.80
2022-12-16T11:10:31.861Z,-2.72
2022-12-16T11:12:48.766Z,-2.66
2022-12-16T11:15:28.133Z,-2.56
2022-12-16T11:17:43.002Z,-2.52
2022-12-16T11:20:00.224Z,-2.39
2022-12-16T11:22:17.155Z,-2.44
2022-12-16T11:24:34.230Z,-2.43
2022-12-16T11:26:51.186Z,-2.36
2022-12-16T11:29:08.256Z,-2.05
2022-12-16T11:31:25.976Z,-2.00
2022-12-16T11:33:43.322Z,-1.98
2022-12-16T11:36:00.569Z,-2.13
2022-12-16T11:38:17.842Z,-2.07
2022-12-16T11:40:34.828Z,-1.98
2022-12-16T11:42:53.120Z,-1.99
2022-12-16T11:45:10.408Z,-1.97
2022-12-16T11:47:28.486Z,-1.96
2022-12-16T11:49:45.523Z,-1.86
2022-12-16T11:52:28.067Z,-1.72
2022-12-16T11:54:39.774Z,-1.64
2022-12-16T11:56:56.800Z,-1.55
2022-12-16T11:59:13.863Z,-1.52
2022-12-16T12:01:31.239Z,-1.46
2022-12-16T12:03:48.377Z,-1.31
2022-12-16T12:06:05.468Z,-1.29
2022-12-16T12:08:22.955Z,-1.33
2022-12-16T12:10:39.912Z,-1.33
2022-12-16T12:12:56.869Z,-1.28
2022-12-16T12:15:14.146Z,-1.25
2022-12-16T12:17:31.069Z,-1.18
2022-12-16T12:19:48.084Z,-1.16
2022-12-16T12:22:05.016Z,-1.16
2022-12-16T12:24:22.326Z,-1.25
2022-12-16T12:26:39.164Z,-1.13
2022-12-16T12:28:56.202Z,-1.06
2022-12-16T12:31:13.306Z,-0.95
2022-12-16T12:33:30.894Z,-0.98
2022-12-16T12:35:48.046Z,-0.88
2022-12-16T12:38:05.163Z,-0.96
2022-12-16T12:40:22.199Z,-1.04
2022-12-16T12:42:41.145Z,-1.03
2022-12-16T12:45:01.273Z,-0.92
2022-12-16T12:47:19.227Z,-0.76
2022-12-16T12:49:36.239Z,-0.72
2022-12-16T12:51:53.547Z,-0.50
2022-12-16T12:54:10.549Z,-0.51
2022-12-16T12:56:27.456Z,-0.74
2022-12-16T12:58:44.462Z,-0.79
2022-12-16T13:01:01.588Z,-0.75
2022-12-16T13:03:19.072Z,-0.67
2022-12-16T13:05:37.194Z,-0.63
2022-12-16T13:07:54.198Z,-0.57
2022-12-16T13:10:13.163Z,-0.63
2022-12-16T13:12:30.327Z,-0.71
2022-12-16T13:14:47.234Z,-0.71
2022-12-16T13:17:04.242Z,-0.81
2022-12-16T13:19:21.167Z,-0.73
2022-12-16T13:21:38.403Z,-0.72
2022-12-16T13:23:55.651Z,-0.65
2022-12-16T13:26:12.673Z,-0.72
2022-12-16T13:28:29.718Z,-0.65
2022-12-16T13:30:47.480Z,-0.63
2022-12-16T13:33:04.815Z,-0.60
2022-12-16T13:35:22.015Z,-0.74
2022-12-16T13:37:39.091Z,-0.67
2022-12-16T13:39:56.121Z,-0.77
2022-12-16T13:42:13.025Z,-0.70
2022-12-16T13:44:30.255Z,-0.73
2022-12-16T13:46:47.129Z,-0.79
2022-12-16T13:49:04.044Z,-0.80
2022-12-16T13:51:21.303Z,-0.80
2022-12-16T13:53:38.660Z,-0.79
2022-12-16T13:55:56.636Z,-0.79
2022-12-16T13:58:13.864Z,-0.84
2022-12-16T14:00:36.212Z,-0.81
2022-12-16T14:02:54.039Z,-0.80
2022-12-16T14:05:11.420Z,-0.90
2022-12-16T14:07:28.454Z,-0.88
2022-12-16T14:09:46.491Z,-0.86
2022-12-16T14:12:03.417Z,-0.85
2022-12-16T14:14:20.498Z,-0.90
2022-12-16T14:16:37.617Z,-0.83
2022-12-16T14:18:54.950Z,-0.88
2022-12-16T14:21:12.172Z,-0.91
2022-12-16T14:23:55.439Z,-0.97
2022-12-16T14:26:06.150Z,-1.06
2022-12-16T14:28:24.107Z,-1.04
2022-12-16T14:30:41.394Z,-1.05
2022-12-16T14:32:58.643Z,-1.15
2022-12-16T14:35:15.550Z,-1.23
2022-12-16T14:37:32.644Z,-1.25
2022-12-16T14:39:49.958Z,-1.29
2022-12-16T14:42:06.878Z,-1.32
2022-12-16T14:44:23.902Z,-1.45
2022-12-16T14:46:41.720Z,-1.36
2022-12-16T14:48:58.760Z,-1.41
2022-12-16T14:51:16.114Z,-1.46
2022-12-16T14:53:33.623Z,-1.55
2022-12-16T14:55:51.099Z,-1.72
2022-12-16T14:58:08.033Z,-1.80
2022-12-16T15:00:25.133Z,-1.95
2022-12-16T15:02:42.582Z,-2.06
2022-12-16T15:04:59.905Z,-2.15
2022-12-16T15:07:17.169Z,-2.27
2022-12-16T15:09:34.486Z,-2.39
2022-12-16T15:11:51.514Z,-2.50
2022-12-16T15:14:10.074Z,-2.55
2022-12-16T15:16:27.420Z,-2.62
2022-12-16T15:18:44.439Z,-2.75
2022-12-16T15:21:01.433Z,-2.77
2022-12-16T15:23:18.372Z,-2.90
2022-12-16T15:25:35.698Z,-3.07
2022-12-16T15:27:52.827Z,-3.17
2022-12-16T15:30:10.061Z,-3.19
2022-12-16T15:32:26.976Z,-3.29
2022-12-16T15:34:45.215Z,-3.39
2022-12-16T15:37:02.543Z,-3.46
2022-12-16T15:39:19.560Z,-3.55
2022-12-16T15:41:36.607Z,-3.65
2022-12-16T15:43:57.479Z,-3.67
2022-12-16T15:46:14.835Z,-3.73
2022-12-16T15:48:31.924Z,-3.82
2022-12-16T15:50:49.165Z,-3.84
2022-12-16T15:53:06.356Z,-3.94
2022-12-16T15:55:23.627Z,-3.95
2022-12-16T15:57:40.646Z,-4.01
2022-12-16T15:59:57.603Z,-4.07
2022-12-16T16:02:15.089Z,-4.13
2022-12-16T16:04:32.439Z,-4.21
2022-12-16T16:06:49.517Z,-4.26
2022-12-16T16:09:07.398Z,-4.30
2022-12-16T16:11:24.415Z,-4.38
2022-12-16T16:13:41.503Z,-4.37
2022-12-16T16:15:58.568Z,-4.38
2022-12-16T16:18:15.581Z,-4.38
2022-12-16T16:20:32.911Z,-4.44
2022-12-16T16:22:50.206Z,-4.50
2022-12-16T16:25:07.460Z,-4.50
2022-12-16T16:27:24.411Z,-4.57
2022-12-16T16:29:41.450Z,-4.55
2022-12-16T16:32:03.854Z,-4.57
2022-12-16T16:34:21.398Z,-4.60
2022-12-16T16:36:38.635Z,-4.62
2022-12-16T16:38:56.939Z,-4.66
2022-12-16T16:41:14.053Z,-4.67
2022-12-16T16:43:31.175Z,-4.70
2022-12-16T16:45:48.482Z,-4.72
2022-12-16T16:48:05.545Z,-4.75
2022-12-16T16:50:22.803Z,-4.81
2022-12-16T16:52:40.098Z,-4.83
2022-12-16T16:54:57.519Z,-4.86
2022-12-16T16:57:15.709Z,-4.87
2022-12-16T16:59:32.728Z,-4.92
2022-12-16T17:01:50.037Z,-4.98
2022-12-16T17:04:07.489Z,-5.00
2022-12-16T17:06:24.593Z,-5.04
2022-12-16T17:08:41.872Z,-5.06
2022-12-16T17:10:58.860Z,-5.09
2022-12-16T17:13:17.434Z,-5.11
2022-12-16T17:15:34.791Z,-5.15
2022-12-16T17:17:51.863Z,-5.17
2022-12-16T17:20:09.255Z,-5.21
2022-12-16T17:22:26.216Z,-5.19
2022-12-16T17:24:47.584Z,-5.24
2022-12-16T17:27:06.364Z,-5.27
2022-12-16T17:29:23.637Z,-5.32
2022-12-16T17:31:40.769Z,-5.37
2022-12-16T17:33:58.049Z,-5.40
2022-12-16T17:36:16.067Z,-5.43
2022-12-16T17:38:33.104Z,-5.47
2022-12-16T17:40:50.110Z,-5.47
2022-12-16T17:43:07.091Z,-5.54
2022-12-16T17:45:25.198Z,-5.57
2022-12-16T17:47:42.137Z,-5.59
2022-12-16T17:49:59.222Z,-5.64
2022-12-16T17:52:16.298Z,-5.67
2022-12-16T17:54:34.610Z,-5.70
2022-12-16T17:56:51.612Z,-5.73
2022-12-16T17:59:11.047Z,-5.78
2022-12-16T18:01:28.650Z,-5.81
2022-12-16T18:03:47.145Z,-5.82
2022-12-16T18:06:04.202Z,-5.82
2022-12-16T18:08:21.163Z,-5.82
2022-12-16T18:10:38.115Z,-5.83
2022-12-16T18:12:55.087Z,-5.87
2022-12-16T18:15:11.941Z,-5.87
2022-12-16T18:17:30.210Z,-5.94
2022-12-16T18:19:47.487Z,-5.97
2022-12-16T18:22:04.521Z,-5.99
2022-12-16T18:24:21.609Z,-6.06
2022-12-16T18:26:39.862Z,-6.07
2022-12-16T18:28:56.759Z,-6.08
2022-12-16T18:31:14.270Z,-6.07
2022-12-16T18:33:31.795Z,-6.13
2022-12-16T18:35:49.371Z,-6.16
2022-12-16T18:38:06.307Z,-6.20
2022-12-16T18:40:23.929Z,-6.24
2022-12-16T18:42:42.176Z,-6.25
2022-12-16T18:45:01.547Z,-6.26
2022-12-16T18:47:18.739Z,-6.25
2022-12-16T18:49:35.789Z,-6.27
2022-12-16T18:51:53.158Z,-6.30
2022-12-16T18:54:10.102Z,-6.32
2022-12-16T18:56:27.113Z,-6.35
2022-12-16T18:58:52.151Z,-6.35
2022-12-16T19:01:09.470Z,-6.39
2022-12-16T19:03:26.539Z,-6.41
2022-12-16T19:05:44.861Z,-6.43
2022-12-16T19:08:01.929Z,-6.39
2022-12-16T19:10:18.842Z,-6.37
2022-12-16T19:12:35.729Z,-6.35
2022-12-16T19:14:52.659Z,-6.34
2022-12-16T19:17:09.712Z,-6.35
2022-12-16T19:19:26.946Z,-6.36
2022-12-16T19:21:49.852Z,-6.37
2022-12-16T19:24:09.365Z,-6.37
2022-12-16T19:26:26.546Z,-6.40
2022-12-16T19:28:43.796Z,-6.40
2022-12-16T19:31:01.050Z,-6.42
2022-12-16T19:33:18.255Z,-6.46
2022-12-16T19:35:35.301Z,-6.47
2022-12-16T19:37:52.376Z,-6.50
2022-12-16T19:40:10.762Z,-6.58
2022-12-16T19:42:27.635Z,-6.63
2022-12-16T19:44:44.989Z,-6.68
2022-12-16T19:47:02.064Z,-6.72
2022-12-16T19:49:19.136Z,-6.74
2022-12-16T19:51:36.338Z,-6.75
2022-12-16T19:53:56.318Z,-6.82
2022-12-16T19:56:13.853Z,-6.85
2022-12-16T19:58:31.741Z,-6.88
2022-12-16T20:00:49.018Z,-6.93
2022-12-16T20:03:06.241Z,-6.99
2022-12-16T20:05:23.423Z,-6.99
2022-12-16T20:07:40.656Z,-7.00
2022-12-16T20:09:57.919Z,-7.06
2022-12-16T20:12:14.764Z,-7.10
2022-12-16T20:14:31.769Z,-7.10
2022-12-16T20:16:48.718Z,-7.10
2022-12-16T20:19:05.754Z,-7.17
2022-12-16T20:21:22.718Z,-7.23
2022-12-16T20:23:39.747Z,-7.24
2022-12-16T20:25:56.921Z,-7.21
2022-12-16T20:28:13.990Z,-7.21
2022-12-16T20:30:31.366Z,-7.21
2022-12-16T20:32:48.363Z,-7.25
2022-12-16T20:35:05.465Z,-7.31
2022-12-16T20:37:22.430Z,-7.33
2022-12-16T20:39:39.433Z,-7.33
2022-12-16T20:41:56.556Z,-7.32
2022-12-16T20:44:13.603Z,-7.35
2022-12-16T20:46:30.597Z,-7.41
2022-12-16T20:48:47.722Z,-7.45
2022-12-16T20:51:04.734Z,-7.47
2022-12-16T20:53:21.941Z,-7.44
2022-12-16T20:55:39.173Z,-7.48
2022-12-16T20:57:56.221Z,-7.49
2022-12-16T21:00:13.408Z,-7.49
2022-12-16T21:02:33.649Z,-7.56
2022-12-16T21:04:51.503Z,-7.61
2022-12-16T21:07:09.142Z,-7.69
2022-12-16T21:09:26.425Z,-7.69
2022-12-16T21:11:43.478Z,-7.65
2022-12-16T21:14:00.386Z,-7.67
2022-12-16T21:16:17.765Z,-7.69
2022-12-16T21:18:35.164Z,-7.72
2022-12-16T21:20:52.129Z,-7.72
2022-12-16T21:23:13.133Z,-7.71
2022-12-16T21:25:30.216Z,-7.74
2022-12-16T21:27:47.224Z,-7.81
2022-12-16T21:30:04.559Z,-7.86
2022-12-16T21:32:21.616Z,-7.90
2022-12-16T21:34:38.702Z,-7.87
2022-12-16T21:36:56.021Z,-7.90
2022-12-16T21:39:13.098Z,-7.93
2022-12-16T21:41:30.608Z,-7.96
2022-12-16T21:43:47.645Z,-7.95
2022-12-16T21:46:04.523Z,-7.94
2022-12-16T21:48:21.520Z,-7.95
2022-12-16T21:50:38.511Z,-7.98
2022-12-16T21:52:56.377Z,-8.00
2022-12-16T21:55:13.498Z,-8.03
2022-12-16T21:57:30.416Z,-8.03
2022-12-16T21:59:47.719Z,-8.10
2022-12-16T22:02:04.860Z,-8.13
2022-12-16T22:04:22.002Z,-8.15
2022-12-16T22:06:39.042Z,-8.17
2022-12-16T22:08:56.242Z,-8.18
2022-12-16T22:11:13.187Z,-8.19
2022-12-16T22:13:30.068Z,-8.21
2022-12-16T22:15:47.038Z,-8.23
2022-12-16T22:18:04.015Z,-8.25
2022-12-16T22:20:21.110Z,-8.28
2022-12-16T22:22:38.132Z,-8.30
2022-12-16T22:24:56.760Z,-8.31
2022-12-16T22:27:13.850Z,-8.35
2022-12-16T22:29:30.793Z,-8.33
2022-12-16T22:31:47.852Z,-8.36
2022-12-16T22:34:05.399Z,-8.38
2022-12-16T22:36:22.444Z,-8.38
2022-12-16T22:38:39.428Z,-8.39
2022-12-16T22:40:56.503Z,-8.45
2022-12-16T22:43:13.491Z,-8.44
2022-12-16T22:45:30.503Z,-8.44
2022-12-16T22:47:47.435Z,-8.45
2022-12-16T22:50:04.579Z,-8.49
2022-12-16T22:52:25.675Z,-8.54
2022-12-16T22:54:43.771Z,-8.49
2022-12-16T22:57:00.904Z,-8.51
2022-12-16T22:59:17.875Z,-8.54
2022-12-16T23:01:34.868Z,-8.55
2022-12-16T23:03:52.154Z,-8.59
2022-12-16T23:06:09.610Z,-8.60
2022-12-16T23:08:26.677Z,-8.63
2022-12-16T23:10:43.754Z,-8.55
2022-12-16T23:13:01.108Z,-8.60
2022-12-16T23:15:18.465Z,-8.61
2022-12-16T23:17:35.489Z,-8.61
2022-12-16T23:19:52.510Z,-8.63
2022-12-16T23:22:13.652Z,-8.60
2022-12-16T23:24:30.925Z,-8.53
2022-12-16T23:26:48.213Z,-8.56
2022-12-16T23:29:05.285Z,-8.56
2022-12-16T23:31:22.346Z,-8.49
2022-12-16T23:33:40.014Z,-8.40
2022-12-16T23:35:57.438Z,-8.40
2022-12-16T23:38:15.341Z,-8.33
2022-12-16T23:40:32.307Z,-8.31
2022-12-16T23:42:49.542Z,-8.30
2022-12-16T23:45:06.877Z,-8.31
2022-12-16T23:47:23.718Z,-8.32
2022-12-16T23:49:40.860Z,-8.35
2022-12-16T23:51:58.044Z,-8.35
2022-12-16T23:54:15.207Z,-8.33
2022-12-16T23:56:32.125Z,-8.34
2022-12-16T23:58:50.061Z,-8.33
